createdAt,value
2022-09-22T00:00:15.524Z,5.92
2022-09-22T00:01:10.768Z,5.83
2022-09-22T00:02:06.046Z,5.83
2022-09-22T00:03:00.992Z,5.91
2022-09-22T00:03:56.212Z,5.94
2022-09-22T00:04:51.277Z,5.94
2022-09-22T00:05:46.465Z,5.95
2022-09-22T00:06:41.686Z,5.97
2022-09-22T00:07:36.774Z,5.96
2022-09-22T00:08:31.969Z,5.94
2022-09-22T00:09:27.159Z,5.92
2022-09-22T00:10:22.248Z,5.88
2022-09-22T00:11:17.464Z,5.86
2022-09-22T00:12:12.649Z,5.86
2022-09-22T00:13:07.740Z,5.81
2022-09-22T00:14:02.910Z,5.77
2022-09-22T00:14:57.999Z,5.74
2022-09-22T00:15:53.214Z,5.80
2022-09-22T00:16:48.330Z,5.87
2022-09-22T00:17:43.410Z,5.86
2022-09-22T00:18:38.617Z,5.82
2022-09-22T00:19:33.794Z,5.80
2022-09-22T00:20:28.883Z,5.77
2022-09-22T00:21:24.083Z,5.73
2022-09-22T00:22:19.403Z,5.67
2022-09-22T00:23:14.466Z,5.62
2022-09-22T00:24:09.649Z,5.72
2022-09-22T00:25:04.736Z,5.81
2022-09-22T00:25:59.922Z,5.86
2022-09-22T00:26:55.281Z,5.89
2022-09-22T00:27:50.232Z,5.89
2022-09-22T00:28:45.395Z,5.86
2022-09-22T00:29:40.580Z,5.80
2022-09-22T00:30:35.791Z,5.73
2022-09-22T00:31:31.016Z,5.71
2022-09-22T00:32:26.320Z,5.71
2022-09-22T00:33:21.395Z,5.75
2022-09-22T00:34:16.573Z,5.70
2022-09-22T00:35:11.661Z,5.64
2022-09-22T00:36:06.859Z,5.63
2022-09-22T00:37:02.068Z,5.75
2022-09-22T00:37:57.156Z,5.80
2022-09-22T00:38:52.347Z,5.79
2022-09-22T00:39:47.517Z,5.72
2022-09-22T00:40:42.675Z,5.68
2022-09-22T00:41:37.728Z,5.61
2022-09-22T00:42:33.055Z,5.54
2022-09-22T00:43:28.124Z,5.49
2022-09-22T00:44:23.335Z,5.49
2022-09-22T00:45:18.416Z,5.44
2022-09-22T00:46:13.681Z,5.37
2022-09-22T00:47:08.716Z,5.30
2022-09-22T00:48:03.803Z,5.22
2022-09-22T00:48:59.054Z,5.21
2022-09-22T00:49:54.106Z,5.28
2022-09-22T00:50:49.306Z,5.40
2022-09-22T00:51:44.493Z,5.44
2022-09-22T00:52:39.821Z,5.45
2022-09-22T00:53:34.899Z,5.45
2022-09-22T00:54:30.111Z,5.40
2022-09-22T00:55:25.191Z,5.36
2022-09-22T00:56:20.391Z,5.30
2022-09-22T00:57:15.589Z,5.30
2022-09-22T00:58:10.796Z,5.32
2022-09-22T00:59:06.001Z,5.31
2022-09-22T01:00:01.239Z,5.27
2022-09-22T01:00:56.336Z,5.23
2022-09-22T01:01:51.439Z,5.25
2022-09-22T01:02:46.624Z,5.27
2022-09-22T01:03:41.729Z,5.27
2022-09-22T01:04:36.789Z,5.28
2022-09-22T01:05:31.879Z,5.28
2022-09-22T01:06:27.087Z,5.26
2022-09-22T01:07:22.273Z,5.23
2022-09-22T01:08:17.385Z,5.19
2022-09-22T01:09:12.565Z,5.09
2022-09-22T01:10:07.772Z,5.03
2022-09-22T01:11:02.845Z,4.99
2022-09-22T01:11:58.031Z,5.05
2022-09-22T01:12:53.354Z,5.10
2022-09-22T01:13:48.458Z,5.15
2022-09-22T01:14:43.647Z,5.14
2022-09-22T01:15:38.772Z,5.12
2022-09-22T01:16:33.862Z,5.15
2022-09-22T01:17:29.039Z,5.21
2022-09-22T01:18:24.120Z,5.30
2022-09-22T01:19:19.352Z,5.41
2022-09-22T01:20:14.390Z,5.47
2022-09-22T01:21:09.626Z,5.48
2022-09-22T01:22:04.809Z,5.55
2022-09-22T01:23:00.140Z,5.51
2022-09-22T01:23:55.206Z,5.45
2022-09-22T01:24:50.421Z,5.42
2022-09-22T01:25:45.488Z,5.40
2022-09-22T01:26:40.708Z,5.36
2022-09-22T01:27:35.890Z,5.35
2022-09-22T01:28:31.092Z,5.36
2022-09-22T01:29:26.286Z,5.36
2022-09-22T01:30:21.467Z,5.42
2022-09-22T01:31:16.712Z,5.43
2022-09-22T01:32:11.785Z,5.50
2022-09-22T01:33:07.094Z,5.55
2022-09-22T01:34:02.184Z,5.55
2022-09-22T01:34:57.367Z,5.51
2022-09-22T01:35:52.474Z,5.46
2022-09-22T01:36:47.663Z,5.39
2022-09-22T01:37:42.870Z,5.35
2022-09-22T01:38:38.073Z,5.35
2022-09-22T01:39:33.280Z,5.30
2022-09-22T01:40:28.530Z,5.21
2022-09-22T01:41:23.651Z,5.13
2022-09-22T01:42:18.706Z,5.06
2022-09-22T01:43:14.150Z,5.07
2022-09-22T01:44:09.230Z,5.07
2022-09-22T01:45:04.288Z,5.05
2022-09-22T01:45:59.545Z,5.02
2022-09-22T01:46:54.604Z,4.99
2022-09-22T01:47:49.790Z,4.98
2022-09-22T01:48:45.010Z,5.09
2022-09-22T01:49:40.199Z,5.11
2022-09-22T01:50:35.399Z,5.07
2022-09-22T01:51:30.477Z,4.99
2022-09-22T01:52:25.677Z,4.90
2022-09-22T01:53:21.012Z,4.85
2022-09-22T01:54:16.090Z,4.78
2022-09-22T01:55:11.298Z,4.72
2022-09-22T01:56:06.397Z,4.66
2022-09-22T01:57:01.578Z,4.63
2022-09-22T01:57:56.764Z,4.62
2022-09-22T01:58:51.851Z,4.61
2022-09-22T01:59:47.035Z,4.63
2022-09-22T02:00:42.251Z,4.69
2022-09-22T02:01:37.448Z,4.78
2022-09-22T02:02:32.568Z,4.82
2022-09-22T02:03:27.690Z,4.87
2022-09-22T02:04:22.782Z,4.90
2022-09-22T02:05:17.972Z,4.93
2022-09-22T02:06:13.200Z,4.98
2022-09-22T02:07:08.261Z,4.99
2022-09-22T02:08:03.459Z,5.01
2022-09-22T02:08:58.785Z,5.00
2022-09-22T02:09:53.762Z,4.95
2022-09-22T02:10:48.963Z,4.91
2022-09-22T02:11:44.075Z,4.86
2022-09-22T02:12:39.264Z,4.84
2022-09-22T02:13:34.587Z,4.87
2022-09-22T02:14:29.665Z,4.92
2022-09-22T02:15:24.847Z,4.91
2022-09-22T02:16:20.115Z,4.88
2022-09-22T02:17:15.167Z,4.86
2022-09-22T02:18:10.351Z,4.84
2022-09-22T02:19:12.356Z,4.79
2022-09-22T02:20:01.545Z,4.74
2022-09-22T02:20:55.700Z,4.70
2022-09-22T02:21:50.893Z,4.71
2022-09-22T02:22:46.085Z,4.78
2022-09-22T02:23:41.185Z,4.81
2022-09-22T02:24:36.372Z,4.87
2022-09-22T02:25:31.700Z,4.97
2022-09-22T02:26:26.846Z,5.03
2022-09-22T02:27:21.978Z,5.07
2022-09-22T02:28:17.033Z,5.05
2022-09-22T02:29:12.234Z,4.94
2022-09-22T02:30:07.425Z,4.82
2022-09-22T02:31:19.465Z,4.70
2022-09-22T02:31:58.713Z,4.58
2022-09-22T02:32:52.835Z,4.51
2022-09-22T02:33:48.018Z,4.47
2022-09-22T02:34:43.210Z,4.40
2022-09-22T02:35:38.317Z,4.38
2022-09-22T02:36:33.497Z,4.38
2022-09-22T02:37:28.818Z,4.39
2022-09-22T02:38:23.909Z,4.38
2022-09-22T02:39:19.128Z,4.37
2022-09-22T02:40:14.244Z,4.36
2022-09-22T02:41:09.306Z,4.37
2022-09-22T02:42:04.494Z,4.38
2022-09-22T02:42:59.704Z,4.35
2022-09-22T02:43:54.907Z,4.32
2022-09-22T02:44:50.105Z,4.31
2022-09-22T02:45:45.192Z,4.31
2022-09-22T02:46:40.462Z,4.29
2022-09-22T02:47:35.643Z,4.33
2022-09-22T02:48:30.748Z,4.36
2022-09-22T02:49:25.925Z,4.36
2022-09-22T02:50:21.009Z,4.38
2022-09-22T02:51:16.201Z,4.41
2022-09-22T02:52:11.428Z,4.44
2022-09-22T02:53:06.514Z,4.47
2022-09-22T02:54:01.719Z,4.48
2022-09-22T02:54:56.778Z,4.48
2022-09-22T02:55:51.873Z,4.44
2022-09-22T02:56:47.063Z,4.42
2022-09-22T02:57:42.406Z,4.44
2022-09-22T02:58:37.485Z,4.46
2022-09-22T02:59:32.707Z,4.55
2022-09-22T03:00:27.786Z,4.57
2022-09-22T03:01:23.002Z,4.57
2022-09-22T03:02:18.176Z,4.64
2022-09-22T03:03:13.265Z,4.68
2022-09-22T03:04:08.465Z,4.72
2022-09-22T03:05:03.835Z,4.77
2022-09-22T03:05:58.854Z,4.79
2022-09-22T03:06:54.058Z,4.78
2022-09-22T03:07:49.374Z,4.78
2022-09-22T03:08:44.454Z,4.80
2022-09-22T03:09:39.665Z,4.82
2022-09-22T03:10:34.768Z,4.82
2022-09-22T03:11:29.953Z,4.77
2022-09-22T03:12:25.143Z,4.70
2022-09-22T03:13:20.253Z,4.64
2022-09-22T03:14:15.449Z,4.58
2022-09-22T03:15:10.525Z,4.55
2022-09-22T03:16:05.760Z,4.65
2022-09-22T03:17:00.840Z,4.70
2022-09-22T03:17:56.152Z,4.70
2022-09-22T03:18:51.234Z,4.68
2022-09-22T03:19:46.454Z,4.70
2022-09-22T03:20:41.565Z,4.69
2022-09-22T03:21:36.749Z,4.68
2022-09-22T03:22:31.964Z,4.67
2022-09-22T03:23:27.186Z,4.66
2022-09-22T03:24:22.382Z,4.65
2022-09-22T03:25:17.585Z,4.61
2022-09-22T03:26:12.858Z,4.57
2022-09-22T03:27:08.087Z,4.55
2022-09-22T03:28:03.419Z,4.54
2022-09-22T03:28:58.533Z,4.54
2022-09-22T03:29:53.732Z,4.53
2022-09-22T03:30:48.858Z,4.54
2022-09-22T03:31:43.932Z,4.52
2022-09-22T03:32:39.009Z,4.48
2022-09-22T03:33:34.219Z,4.44
2022-09-22T03:34:29.412Z,4.47
2022-09-22T03:35:24.615Z,4.60
2022-09-22T03:36:19.754Z,4.73
2022-09-22T03:37:14.824Z,4.82
2022-09-22T03:38:10.172Z,4.81
2022-09-22T03:39:05.344Z,4.79
2022-09-22T03:40:00.353Z,4.71
2022-09-22T03:40:55.435Z,4.61
2022-09-22T03:41:50.649Z,4.55
2022-09-22T03:42:45.718Z,4.50
2022-09-22T03:43:40.927Z,4.45
2022-09-22T03:44:36.116Z,4.40
2022-09-22T03:45:31.318Z,4.33
2022-09-22T03:46:26.485Z,4.23
2022-09-22T03:47:21.579Z,4.15
2022-09-22T03:48:19.116Z,4.10
2022-09-22T03:49:14.203Z,4.08
2022-09-22T03:50:09.735Z,4.14
2022-09-22T03:51:05.424Z,4.17
2022-09-22T03:52:00.643Z,4.19
2022-09-22T03:52:55.981Z,4.17
2022-09-22T03:53:52.043Z,4.14
2022-09-22T03:54:47.275Z,4.10
2022-09-22T03:55:43.095Z,4.08
2022-09-22T03:56:38.305Z,4.05
2022-09-22T03:57:33.545Z,4.02
2022-09-22T03:58:29.232Z,3.98
2022-09-22T03:59:24.465Z,3.95
2022-09-22T04:00:20.280Z,3.92
2022-09-22T04:01:15.596Z,3.91
2022-09-22T04:02:10.885Z,3.93
2022-09-22T04:03:06.558Z,3.97
2022-09-22T04:04:01.777Z,3.99
2022-09-22T04:04:56.997Z,3.98
2022-09-22T04:05:53.210Z,3.97
2022-09-22T04:06:48.348Z,3.94
2022-09-22T04:07:44.128Z,3.90
2022-09-22T04:08:39.322Z,3.88
2022-09-22T04:09:34.451Z,3.87
2022-09-22T04:10:30.225Z,3.87
2022-09-22T04:11:25.505Z,3.84
2022-09-22T04:12:21.297Z,3.84
2022-09-22T04:13:16.504Z,3.87
2022-09-22T04:14:11.758Z,3.89
2022-09-22T04:15:07.548Z,3.91
2022-09-22T04:16:02.853Z,3.92
2022-09-22T04:16:57.829Z,3.91
2022-09-22T04:17:54.370Z,3.88
2022-09-22T04:18:49.591Z,3.87
2022-09-22T04:19:45.372Z,3.97
2022-09-22T04:20:41.268Z,4.03
2022-09-22T04:21:35.760Z,4.01
2022-09-22T04:22:32.122Z,4.01
2022-09-22T04:23:27.375Z,3.99
2022-09-22T04:24:23.278Z,3.97
2022-09-22T04:25:18.348Z,3.95
2022-09-22T04:26:13.755Z,3.96
2022-09-22T04:27:19.432Z,4.14
2022-09-22T04:28:05.895Z,4.31
2022-09-22T04:28:59.898Z,4.36
2022-09-22T04:29:54.897Z,4.36
2022-09-22T04:30:50.060Z,4.33
2022-09-22T04:31:45.086Z,4.31
2022-09-22T04:32:40.175Z,4.28
2022-09-22T04:33:35.301Z,4.26
2022-09-22T04:34:30.295Z,4.23
2022-09-22T04:35:25.310Z,4.20
2022-09-22T04:36:25.839Z,4.12
2022-09-22T04:37:20.929Z,4.09
2022-09-22T04:38:16.311Z,4.09
2022-09-22T04:39:11.992Z,4.09
2022-09-22T04:40:07.271Z,5.53
2022-09-22T04:41:02.443Z,6.76
2022-09-22T04:41:58.593Z,7.51
2022-09-22T04:42:53.824Z,7.83
2022-09-22T04:43:49.684Z,7.90
2022-09-22T04:44:44.848Z,8.35
2022-09-22T04:45:40.043Z,8.75
2022-09-22T04:46:35.788Z,9.23
2022-09-22T04:47:30.931Z,9.63
2022-09-22T04:48:26.850Z,9.94
2022-09-22T04:49:22.107Z,10.15
2022-09-22T04:50:17.290Z,10.11
2022-09-22T04:51:12.443Z,10.17
2022-09-22T04:52:07.887Z,9.96
2022-09-22T04:53:02.987Z,9.24
2022-09-22T04:53:58.104Z,8.39
2022-09-22T04:54:53.187Z,7.67
2022-09-22T04:55:49.800Z,6.98
2022-09-22T04:56:44.919Z,6.43
2022-09-22T04:57:40.724Z,5.92
2022-09-22T04:58:36.005Z,5.56
2022-09-22T04:59:31.446Z,5.30
2022-09-22T05:00:26.622Z,5.06
2022-09-22T05:01:21.718Z,4.91
2022-09-22T05:02:16.648Z,4.76
2022-09-22T05:03:11.753Z,4.64
2022-09-22T05:04:06.806Z,4.56
2022-09-22T05:05:01.910Z,4.53
2022-09-22T05:05:57.019Z,4.51
2022-09-22T05:06:52.094Z,4.42
2022-09-22T05:07:47.101Z,4.40
2022-09-22T05:08:42.192Z,4.39
2022-09-22T05:09:37.219Z,4.42
2022-09-22T05:10:32.417Z,4.41
2022-09-22T05:11:27.401Z,4.39
2022-09-22T05:12:22.405Z,4.40
2022-09-22T05:13:17.397Z,4.42
2022-09-22T05:14:15.616Z,4.38
2022-09-22T05:15:10.649Z,4.31
2022-09-22T05:16:05.647Z,4.24
2022-09-22T05:17:00.952Z,4.31
2022-09-22T05:17:56.058Z,4.36
2022-09-22T05:18:51.189Z,4.40
2022-09-22T05:19:46.229Z,4.36
2022-09-22T05:20:41.206Z,4.30
2022-09-22T05:21:36.237Z,4.25
2022-09-22T05:22:31.254Z,4.18
2022-09-22T05:23:26.264Z,4.12
2022-09-22T05:24:21.302Z,4.14
2022-09-22T05:25:16.435Z,4.19
2022-09-22T05:26:11.643Z,4.23
2022-09-22T05:27:06.431Z,4.20
2022-09-22T05:28:01.536Z,4.17
2022-09-22T05:28:56.544Z,4.12
2022-09-22T05:29:51.566Z,4.13
2022-09-22T05:30:46.661Z,4.21
2022-09-22T05:31:41.689Z,4.30
2022-09-22T05:32:36.683Z,4.33
2022-09-22T05:33:31.986Z,4.32
2022-09-22T05:34:27.138Z,4.33
2022-09-22T05:35:22.454Z,4.34
2022-09-22T05:36:17.797Z,4.32
2022-09-22T05:37:13.105Z,4.29
2022-09-22T05:38:08.476Z,4.28
2022-09-22T05:39:03.798Z,4.27
2022-09-22T05:39:59.096Z,4.29
2022-09-22T05:40:54.412Z,4.33
2022-09-22T05:41:49.727Z,4.39
2022-09-22T05:42:45.068Z,4.44
2022-09-22T05:43:40.428Z,4.43
2022-09-22T05:44:35.733Z,4.42
2022-09-22T05:45:31.117Z,4.40
2022-09-22T05:46:26.492Z,4.43
2022-09-22T05:47:21.554Z,4.45
2022-09-22T05:48:16.602Z,4.50
2022-09-22T05:49:11.658Z,4.56
2022-09-22T05:50:06.730Z,4.62
2022-09-22T05:51:01.813Z,4.65
2022-09-22T05:51:56.880Z,4.69
2022-09-22T05:52:51.925Z,4.72
2022-09-22T05:53:47.037Z,4.73
2022-09-22T05:54:42.089Z,4.72
2022-09-22T05:55:37.709Z,4.70
2022-09-22T05:56:33.037Z,4.68
2022-09-22T05:57:28.404Z,4.71
2022-09-22T05:58:23.788Z,4.78
2022-09-22T05:59:19.092Z,4.78
2022-09-22T06:00:14.396Z,4.80
2022-09-22T06:01:09.795Z,4.84
2022-09-22T06:02:18.003Z,4.90
2022-09-22T06:03:01.656Z,4.96
2022-09-22T06:03:55.935Z,5.03
2022-09-22T06:04:51.243Z,5.03
2022-09-22T06:05:46.580Z,4.97
2022-09-22T06:06:41.893Z,4.95
2022-09-22T06:07:37.199Z,4.93
2022-09-22T06:08:32.556Z,4.91
2022-09-22T06:09:27.869Z,5.00
2022-09-22T06:10:23.227Z,5.11
2022-09-22T06:11:18.572Z,5.22
2022-09-22T06:12:13.660Z,5.27
2022-09-22T06:13:08.632Z,5.34
2022-09-22T06:14:03.729Z,5.37
2022-09-22T06:14:58.808Z,5.39
2022-09-22T06:15:53.920Z,5.38
2022-09-22T06:16:49.058Z,5.37
2022-09-22T06:17:44.206Z,5.39
2022-09-22T06:18:39.218Z,5.40
2022-09-22T06:19:34.322Z,5.42
2022-09-22T06:20:29.324Z,5.45
2022-09-22T06:21:25.767Z,5.49
2022-09-22T06:22:21.135Z,5.50
2022-09-22T06:23:16.520Z,5.52
2022-09-22T06:24:11.904Z,5.53
2022-09-22T06:25:07.403Z,5.52
2022-09-22T06:26:02.775Z,5.60
2022-09-22T06:26:58.135Z,5.67
2022-09-22T06:27:53.639Z,5.73
2022-09-22T06:28:48.875Z,5.82
2022-09-22T06:29:44.252Z,5.93
2022-09-22T06:30:39.628Z,6.04
2022-09-22T06:31:35.029Z,6.13
2022-09-22T06:32:30.382Z,6.25
2022-09-22T06:33:25.812Z,6.39
2022-09-22T06:34:21.201Z,6.53
2022-09-22T06:35:16.578Z,6.63
2022-09-22T06:36:11.981Z,6.73
2022-09-22T06:37:07.215Z,6.83
2022-09-22T06:38:02.769Z,6.96
2022-09-22T06:38:58.119Z,7.10
2022-09-22T06:39:53.530Z,7.19
2022-09-22T06:40:49.012Z,7.25
2022-09-22T06:41:44.353Z,7.30
2022-09-22T06:42:39.819Z,7.36
2022-09-22T06:43:35.042Z,7.46
2022-09-22T06:44:30.323Z,7.56
2022-09-22T06:45:25.719Z,7.66
2022-09-22T06:46:21.029Z,7.73
2022-09-22T06:47:16.348Z,7.80
2022-09-22T06:48:11.667Z,7.89
2022-09-22T06:49:06.955Z,7.98
2022-09-22T06:50:02.398Z,8.12
2022-09-22T06:50:57.426Z,8.19
2022-09-22T06:51:52.465Z,8.29
2022-09-22T06:52:47.573Z,8.41
2022-09-22T06:53:42.624Z,8.49
2022-09-22T06:54:37.653Z,8.57
2022-09-22T06:55:32.692Z,8.64
2022-09-22T06:56:27.724Z,8.77
2022-09-22T06:57:22.763Z,8.90
2022-09-22T06:58:18.012Z,9.01
2022-09-22T06:59:13.025Z,9.14
2022-09-22T07:00:08.071Z,9.20
2022-09-22T07:01:06.290Z,9.27
2022-09-22T07:01:59.237Z,9.38
2022-09-22T07:02:53.371Z,9.54
2022-09-22T07:03:48.252Z,9.66
2022-09-22T07:04:43.307Z,9.76
2022-09-22T07:05:38.579Z,9.88
2022-09-22T07:06:33.916Z,10.03
2022-09-22T07:07:29.319Z,10.20
2022-09-22T07:08:24.687Z,10.33
2022-09-22T07:09:20.177Z,10.49
2022-09-22T07:10:15.452Z,10.51
2022-09-22T07:11:10.806Z,10.55
2022-09-22T07:12:06.230Z,10.60
2022-09-22T07:13:01.624Z,10.68
2022-09-22T07:14:01.185Z,10.66
2022-09-22T07:14:56.592Z,10.70
2022-09-22T07:15:52.060Z,10.74
2022-09-22T07:16:47.366Z,10.82
2022-09-22T07:17:42.873Z,10.90
2022-09-22T07:18:38.123Z,10.99
2022-09-22T07:19:33.484Z,11.03
2022-09-22T07:20:28.482Z,11.09
2022-09-22T07:21:23.565Z,11.17
2022-09-22T07:22:18.582Z,11.15
2022-09-22T07:23:13.589Z,11.15
2022-09-22T07:24:08.598Z,11.20
2022-09-22T07:25:03.641Z,11.28
2022-09-22T07:25:58.687Z,11.42
2022-09-22T07:26:53.790Z,11.50
2022-09-22T07:27:48.806Z,11.57
2022-09-22T07:28:43.894Z,11.67
2022-09-22T07:29:39.011Z,11.76
2022-09-22T07:30:34.300Z,11.84
2022-09-22T07:31:29.232Z,11.92
2022-09-22T07:32:24.357Z,11.90
2022-09-22T07:33:19.880Z,12.03
2022-09-22T07:34:15.408Z,12.23
2022-09-22T07:35:10.806Z,12.36
2022-09-22T07:36:06.368Z,12.42
2022-09-22T07:37:01.631Z,12.55
2022-09-22T07:37:57.288Z,12.32
2022-09-22T07:38:52.679Z,12.18
2022-09-22T07:39:48.230Z,12.10
2022-09-22T07:40:43.763Z,11.84
2022-09-22T07:41:39.277Z,11.78
2022-09-22T07:42:34.705Z,11.89
2022-09-22T07:43:33.742Z,12.14
2022-09-22T07:44:29.129Z,12.45
2022-09-22T07:45:24.664Z,12.75
2022-09-22T07:46:20.167Z,12.95
2022-09-22T07:47:15.603Z,12.79
2022-09-22T07:48:11.008Z,12.49
2022-09-22T07:49:06.429Z,12.37
2022-09-22T07:50:01.950Z,12.34
2022-09-22T07:50:57.462Z,12.39
2022-09-22T07:51:53.007Z,12.49
2022-09-22T07:52:48.461Z,12.59
2022-09-22T07:53:43.871Z,12.62
2022-09-22T07:54:39.205Z,12.72
2022-09-22T07:55:34.616Z,12.79
2022-09-22T07:56:30.164Z,12.85
2022-09-22T07:57:25.268Z,12.87
2022-09-22T07:58:20.298Z,13.04
2022-09-22T07:59:15.346Z,13.33
2022-09-22T08:00:10.437Z,13.58
2022-09-22T08:01:05.624Z,13.52
2022-09-22T08:02:00.695Z,13.19
2022-09-22T08:02:55.683Z,12.98
2022-09-22T08:03:50.992Z,12.90
2022-09-22T08:04:45.849Z,12.57
2022-09-22T08:05:40.957Z,12.24
2022-09-22T08:06:37.706Z,12.11
2022-09-22T08:07:32.816Z,12.14
2022-09-22T08:08:27.853Z,12.18
2022-09-22T08:09:22.845Z,12.17
2022-09-22T08:10:18.910Z,12.27
2022-09-22T08:11:14.276Z,12.30
2022-09-22T08:12:09.695Z,12.42
2022-09-22T08:13:05.085Z,12.49
2022-09-22T08:14:00.787Z,12.42
2022-09-22T08:14:56.224Z,12.72
2022-09-22T08:15:51.655Z,13.12
2022-09-22T08:16:47.034Z,13.24
2022-09-22T08:17:42.551Z,13.36
2022-09-22T08:18:37.961Z,13.48
2022-09-22T08:19:33.651Z,13.75
2022-09-22T08:20:29.291Z,14.09
2022-09-22T08:21:24.710Z,14.43
2022-09-22T08:22:20.291Z,14.57
2022-09-22T08:23:15.396Z,14.58
2022-09-22T08:24:10.532Z,14.62
2022-09-22T08:25:05.538Z,14.44
2022-09-22T08:26:00.519Z,14.37
2022-09-22T08:26:55.603Z,14.23
2022-09-22T08:27:50.778Z,13.97
2022-09-22T08:28:45.616Z,13.77
2022-09-22T08:29:43.173Z,13.61
2022-09-22T08:30:38.428Z,13.57
2022-09-22T08:31:33.489Z,13.61
2022-09-22T08:32:28.537Z,13.62
2022-09-22T08:33:23.506Z,13.56
2022-09-22T08:34:18.617Z,13.52
2022-09-22T08:35:13.616Z,13.89
2022-09-22T08:36:08.736Z,14.29
2022-09-22T08:37:04.653Z,14.55
2022-09-22T08:38:00.081Z,14.70
2022-09-22T08:38:55.475Z,14.79
2022-09-22T08:39:50.878Z,14.73
2022-09-22T08:40:46.456Z,14.98
2022-09-22T08:41:41.740Z,15.21
2022-09-22T08:42:36.733Z,15.39
2022-09-22T08:43:31.855Z,15.51
2022-09-22T08:44:26.878Z,15.69
2022-09-22T08:45:26.751Z,15.78
2022-09-22T08:46:18.135Z,15.59
2022-09-22T08:47:12.119Z,15.50
2022-09-22T08:48:07.101Z,15.47
2022-09-22T08:49:02.497Z,15.36
2022-09-22T08:49:57.895Z,15.09
2022-09-22T08:50:53.403Z,15.18
2022-09-22T08:51:48.813Z,15.24
2022-09-22T08:52:44.366Z,15.25
2022-09-22T08:53:39.782Z,15.31
2022-09-22T08:54:35.201Z,14.74
2022-09-22T08:55:30.580Z,14.49
2022-09-22T08:56:26.111Z,14.56
2022-09-22T08:57:21.095Z,14.61
2022-09-22T08:58:16.100Z,14.87
2022-09-22T08:59:11.218Z,15.01
2022-09-22T09:00:06.162Z,14.97
2022-09-22T09:01:01.262Z,15.06
2022-09-22T09:01:56.296Z,14.87
2022-09-22T09:02:51.371Z,14.74
2022-09-22T09:03:46.359Z,14.89
2022-09-22T09:06:06.111Z,14.78
2022-09-22T09:07:01.539Z,15.25
2022-09-22T09:07:56.964Z,15.44
2022-09-22T09:08:52.365Z,15.56
2022-09-22T09:09:47.892Z,15.60
2022-09-22T09:10:43.292Z,15.76
2022-09-22T09:11:38.822Z,15.86
2022-09-22T09:12:34.194Z,15.43
2022-09-22T09:13:29.573Z,15.30
2022-09-22T09:14:25.127Z,15.22
2022-09-22T09:15:20.652Z,15.27
2022-09-22T09:16:16.254Z,15.34
2022-09-22T09:17:11.657Z,15.24
2022-09-22T09:18:07.332Z,15.41
2022-09-22T09:19:02.562Z,15.71
2022-09-22T09:19:57.979Z,15.98
2022-09-22T09:20:53.493Z,16.32
2022-09-22T09:21:49.258Z,16.63
2022-09-22T09:22:46.438Z,16.86
2022-09-22T09:25:32.342Z,17.30
2022-09-22T09:26:26.930Z,17.14
2022-09-22T09:27:22.565Z,17.19
2022-09-22T09:28:18.149Z,17.21
2022-09-22T09:29:13.536Z,17.09
2022-09-22T09:30:09.200Z,16.99
2022-09-22T09:31:04.553Z,16.83
2022-09-22T09:31:59.981Z,16.61
2022-09-22T09:32:55.529Z,16.66
2022-09-22T09:33:51.074Z,16.45
2022-09-22T09:34:46.704Z,16.36
2022-09-22T09:35:42.247Z,16.48
2022-09-22T09:36:37.490Z,16.82
2022-09-22T09:37:32.857Z,16.70
2022-09-22T09:38:28.279Z,16.37
2022-09-22T09:39:23.925Z,16.29
2022-09-22T09:40:19.487Z,16.15
2022-09-22T09:41:14.917Z,15.91
2022-09-22T09:42:10.405Z,15.85
2022-09-22T09:43:05.907Z,15.95
2022-09-22T09:44:01.572Z,16.25
2022-09-22T09:44:56.946Z,16.25
2022-09-22T09:45:52.461Z,16.39
2022-09-22T09:46:48.035Z,16.42
2022-09-22T09:47:43.341Z,16.57
2022-09-22T09:48:38.834Z,16.96
2022-09-22T09:49:34.656Z,16.91
2022-09-22T09:50:30.055Z,16.69
2022-09-22T09:51:25.428Z,16.71
2022-09-22T09:52:20.945Z,16.76
2022-09-22T09:53:16.445Z,16.72
2022-09-22T09:54:16.786Z,16.51
2022-09-22T09:55:09.283Z,16.48
2022-09-22T09:56:02.896Z,16.61
2022-09-22T09:56:58.425Z,16.74
2022-09-22T09:57:53.932Z,17.02
2022-09-22T09:58:49.450Z,17.22
2022-09-22T09:59:44.962Z,17.48
2022-09-22T10:00:40.505Z,17.56
2022-09-22T10:01:36.187Z,17.43
2022-09-22T10:02:31.733Z,17.40
2022-09-22T10:03:27.316Z,17.62
2022-09-22T10:04:22.689Z,17.83
2022-09-22T10:05:18.155Z,18.13
2022-09-22T10:06:13.816Z,18.43
2022-09-22T10:07:09.201Z,18.13
2022-09-22T10:08:04.621Z,18.14
2022-09-22T10:09:00.310Z,18.50
2022-09-22T10:09:55.878Z,18.59
2022-09-22T10:10:51.414Z,18.50
2022-09-22T10:11:46.928Z,18.54
2022-09-22T10:12:42.348Z,18.22
2022-09-22T10:13:37.799Z,17.98
2022-09-22T10:14:33.240Z,18.03
2022-09-22T10:15:28.829Z,18.06
2022-09-22T10:16:24.228Z,18.47
2022-09-22T10:17:19.626Z,18.71
2022-09-22T10:18:15.177Z,18.65
2022-09-22T10:19:10.531Z,18.19
2022-09-22T10:20:05.998Z,17.99
2022-09-22T10:21:01.468Z,18.15
2022-09-22T10:21:56.908Z,18.26
2022-09-22T10:22:52.378Z,18.48
2022-09-22T10:23:47.856Z,18.68
2022-09-22T10:24:43.417Z,18.44
2022-09-22T10:25:38.730Z,18.12
2022-09-22T10:26:34.327Z,18.22
2022-09-22T10:27:29.603Z,18.27
2022-09-22T10:28:25.054Z,17.79
2022-09-22T10:29:20.515Z,17.39
2022-09-22T10:30:15.835Z,17.44
2022-09-22T10:31:11.335Z,17.64
2022-09-22T10:32:06.661Z,18.06
2022-09-22T10:33:02.283Z,18.47
2022-09-22T10:33:57.494Z,18.67
2022-09-22T10:34:52.964Z,18.81
2022-09-22T10:35:48.395Z,19.07
2022-09-22T10:36:43.835Z,18.99
2022-09-22T10:37:39.287Z,19.09
2022-09-22T10:38:34.900Z,19.27
2022-09-22T10:39:30.093Z,18.93
2022-09-22T10:40:25.611Z,18.65
2022-09-22T10:41:21.014Z,18.72
2022-09-22T10:42:16.474Z,18.61
2022-09-22T10:43:12.036Z,18.41
2022-09-22T10:44:34.523Z,18.20
2022-09-22T10:45:03.872Z,18.11
2022-09-22T10:45:58.292Z,18.40
2022-09-22T10:46:53.717Z,18.39
2022-09-22T10:47:49.135Z,18.13
2022-09-22T10:48:44.623Z,18.01
2022-09-22T10:49:40.215Z,17.84
2022-09-22T10:50:35.543Z,18.05
2022-09-22T10:51:30.862Z,18.39
2022-09-22T10:52:26.302Z,18.51
2022-09-22T10:53:21.781Z,18.57
2022-09-22T10:54:17.196Z,18.47
2022-09-22T10:55:12.647Z,18.62
2022-09-22T10:56:08.118Z,18.74
2022-09-22T10:57:03.550Z,18.81
2022-09-22T10:57:58.986Z,18.96
2022-09-22T10:58:54.500Z,18.98
2022-09-22T10:59:50.146Z,18.65
2022-09-22T11:00:45.543Z,18.39
2022-09-22T11:01:40.925Z,18.25
2022-09-22T11:02:36.220Z,18.11
2022-09-22T11:03:31.570Z,18.21
2022-09-22T11:04:27.182Z,18.29
2022-09-22T11:05:22.567Z,18.32
2022-09-22T11:06:17.891Z,18.30
2022-09-22T11:07:13.420Z,18.24
2022-09-22T11:08:08.848Z,18.28
2022-09-22T11:09:04.154Z,18.23
2022-09-22T11:09:59.699Z,18.36
2022-09-22T11:10:55.020Z,18.45
2022-09-22T11:11:50.425Z,18.36
2022-09-22T11:12:45.995Z,18.29
2022-09-22T11:13:41.669Z,18.16
2022-09-22T11:14:36.831Z,18.14
2022-09-22T11:15:32.288Z,18.34
2022-09-22T11:16:27.738Z,18.63
2022-09-22T11:17:23.176Z,18.86
2022-09-22T11:18:18.738Z,18.83
2022-09-22T11:19:14.080Z,18.93
2022-09-22T11:20:09.456Z,18.93
2022-09-22T11:21:04.888Z,18.99
2022-09-22T11:22:00.345Z,19.36
2022-09-22T11:22:55.818Z,19.25
2022-09-22T11:23:51.242Z,18.95
2022-09-22T11:24:46.567Z,18.82
2022-09-22T11:25:42.027Z,19.00
2022-09-22T11:26:37.617Z,19.05
2022-09-22T11:27:33.109Z,19.01
2022-09-22T11:28:28.392Z,19.03
2022-09-22T11:29:23.891Z,19.04
2022-09-22T11:30:19.340Z,19.00
2022-09-22T11:31:14.817Z,19.09
2022-09-22T11:32:10.164Z,19.39
2022-09-22T11:33:05.718Z,19.41
2022-09-22T11:34:01.156Z,19.29
2022-09-22T11:34:56.478Z,19.50
2022-09-22T11:35:52.116Z,19.64
2022-09-22T11:36:51.485Z,19.82
2022-09-22T11:37:42.872Z,19.52
2022-09-22T11:38:38.299Z,18.93
2022-09-22T11:39:33.590Z,19.01
2022-09-22T11:40:29.072Z,19.15
2022-09-22T11:41:24.547Z,19.48
2022-09-22T11:42:19.973Z,19.89
2022-09-22T11:43:15.402Z,19.84
2022-09-22T11:44:11.254Z,19.57
2022-09-22T11:45:06.713Z,19.14
2022-09-22T11:46:02.045Z,18.96
2022-09-22T11:46:57.380Z,18.88
2022-09-22T11:47:52.952Z,18.94
2022-09-22T11:48:48.283Z,19.10
2022-09-22T11:49:43.635Z,19.09
2022-09-22T11:50:39.100Z,19.11
2022-09-22T11:51:34.562Z,18.90
2022-09-22T11:52:30.022Z,19.00
2022-09-22T11:53:25.480Z,19.09
2022-09-22T11:54:20.958Z,18.81
2022-09-22T11:55:16.407Z,18.83
2022-09-22T11:56:11.864Z,19.00
2022-09-22T11:57:07.453Z,19.30
2022-09-22T11:58:02.763Z,19.39
2022-09-22T11:58:58.214Z,19.25
2022-09-22T11:59:53.544Z,19.23
2022-09-22T12:00:49.114Z,19.54
2022-09-22T12:01:44.456Z,19.60
2022-09-22T12:02:40.010Z,19.74
2022-09-22T12:03:35.480Z,19.57
2022-09-22T12:04:30.744Z,18.94
2022-09-22T12:05:26.179Z,18.58
2022-09-22T12:06:21.650Z,18.45
2022-09-22T12:07:17.125Z,18.48
2022-09-22T12:08:12.623Z,18.78
2022-09-22T12:09:08.085Z,18.89